Flight Track Log - Related Links

Times and Time Zones

All times are in EST time to prevent confusion due to time zone crossing. See the EJA829P flight status page for this flight to view local times or setup timezone preferences in your user account.

Time Position Orientation Groundspeed Altitude Reporting Facility
EST Latitude Longitude Course Direction KTS MPH feet Rate Location/Type
Tue 04:46:26 PM 42.8689 -85.5703 225° Southwest 215 247 2,900  Level Chicago Center
Tue 04:47:28 PM 42.8258 -85.6286 225° Southwest 215 247 6,700 3,774 Climbing Chicago Center
Tue 04:48:30 PM 42.7447 -85.6358 184° South 257 296 10,700 3,581 Climbing Chicago Center
Tue 04:49:32 PM 42.6650 -85.6142 169° South 283 326 14,100 2,903 Climbing Chicago Center
Tue 04:50:34 PM 42.5794 -85.5922 169° South 304 350 16,700 1,392 Climbing Chicago Center
Tue 04:51:37 PM 42.4858 -85.5675 169° South 334 384 17,000 144 Climbing Chicago Center
Tue 04:52:39 PM 42.3942 -85.5442 169° South 337 388 17,000  Level Chicago Center
Tue 04:53:41 PM 42.3019 -85.5206 169° South 337 388 17,000 -726 Level Chicago Center
Tue 04:54:43 PM 42.1856 -85.4906 169° South 354 407 15,500 -968 Descending Chicago Center
Tue 04:55:45 PM 42.0975 -85.4681 169° South 328 377 15,000 -242 Descending Chicago Center
Tue 04:56:47 PM 42.0111 -85.4450 169° South 318 366 15,000  Level Chicago Center
Tue 04:57:49 PM 41.9139 -85.4214 170° South 321 369 15,000  Level Chicago Center
Tue 04:58:54 PM 41.8253 -85.3992 169° South 323 372 15,000  Level Chicago Center
Tue 04:59:56 PM 41.7364 -85.3761 169° South 324 373 15,000  Level Chicago Center
Tue 05:00:58 PM 41.6447 -85.3522 169° South 324 373 15,000  Level Chicago Center
Tue 05:02:00 PM 41.5506 -85.3289 169° South 331 381 15,000  Level Chicago Center
Tue 05:03:02 PM 41.4594 -85.3067 170° South 331 381 15,000  Level Chicago Center
Tue 05:04:04 PM 41.3686 -85.2839 169° South 331 381 15,000  Level Chicago Center
Tue 05:05:06 PM 41.2772 -85.2603 169° South 333 383 15,000  Level Chicago Center
Tue 05:06:08 PM 41.1672 -85.2328 169° South 334 384 15,000  Level Chicago Center
Tue 05:07:11 PM 41.0758 -85.2094 169° South 335 386 15,000  Level Chicago Center
Tue 05:08:13 PM 40.9878 -85.1767 164° South 334 384 15,000  Level Chicago Center
Tue 05:09:15 PM 40.9419 -85.0642 118° Southeast 347 399 15,000  Level Chicago Center
Tue 05:10:17 PM 40.9053 -84.9456 112° Southeast 351 404 15,000  Level Chicago Center
Tue 05:11:19 PM 40.8617 -84.8028 112° Southeast 351 404 15,000  Level Chicago Center
Tue 05:12:21 PM 40.8239 -84.6822 112° Southeast 354 407 15,000  Level Chicago Center
Tue 05:13:23 PM 40.7867 -84.5617 112° Southeast 356 410 15,000  Level Chicago Center
Tue 05:14:25 PM 40.7494 -84.4439 113° Southeast 351 404 15,000  Level Chicago Center
Tue 05:15:27 PM 40.7131 -84.3239 112° Southeast 352 405 15,000  Level Chicago Center
Tue 05:16:37 PM 40.6633 -84.1672 113° Southeast 356 410 15,000  Level Indianapolis Center
Tue 05:17:39 PM 40.6247 -84.0458 113° Southeast 358 412 15,000 -435 Level Indianapolis Center
Tue 05:18:41 PM 40.5881 -83.9283 112° Southeast 349 402 14,100 -990 Descending Indianapolis Center
Tue 05:19:22 PM 40.5617 -83.8461 113° Southeast 326 375 13,300 -1,258 Descending Indianapolis Center
Tue 05:19:43 PM 40.5531 -83.8172 111° Southeast 334 384 12,800 -1,291 Descending Indianapolis Center
Tue 05:20:41 PM 40.5150 -83.7058 114° Southeast 321 369 11,600 -1,161 Descending Indianapolis Center
Tue 05:20:45 PM 40.5181 -83.7097 316° Northwest 323 372 11,600 -1,475 Level Indianapolis Center
Tue 05:21:42 PM 40.4814 -83.6008 114° Southeast 307 353 10,100 -1,452 Descending Indianapolis Center
Tue 05:21:47 PM 40.4853 -83.6044 325° Northwest 315 362 10,100 -1,475 Level Indianapolis Center
Tue 05:22:43 PM 40.4511 -83.5022 114° Southeast 294 338 8,600 -1,645 Descending Indianapolis Center
Tue 05:22:49 PM 40.4464 -83.4858 111° Southeast 300 345 8,400 -1,545 Descending Indianapolis Center
Tue 05:23:49 PM 40.4136 -83.3939 115° Southeast 282 325 6,900 -1,452 Descending Indianapolis Center
Tue 05:23:51 PM 40.4153 -83.3903 59° Northeast 289 333 6,900 -1,745 Level Indianapolis Center
Tue 05:24:44 PM 40.3881 -83.3100 114° Southeast 270 311 5,300 -1,742 Descending Indianapolis Center
Tue 05:24:53 PM 40.3853 -83.2986 108° East 279 321 5,100 -1,881 Descending Indianapolis Center
Tue 05:25:51 PM 40.3528 -83.2189 118° Southeast 257 296 3,200 -1,839 Descending Indianapolis Center
Tue 05:25:55 PM 40.3531 -83.2167 81° East 266 306 3,200 -182 Level Indianapolis Center
Tue 05:26:57 PM 40.3006 -83.1481 135° Southeast 256 295 3,000 -194 Descending Indianapolis Center

Login

Don't have an account? Register now (free) for customized features, flight alerts, and more!